Terminal Aerodrome Forecast
Issued by NWS

Home | Current Version | Previous Version | Text Only | Print | Product List | Glossary On
Versions: 1 2 3 4 5 6 7 8 9 10 11 12 13 14 15 16 17 18 19 20 21
000
FTUS43 KBIS 010500
TAFMOT
TAF
KMOT 010520Z 0106/0206 36013KT P6SM BKN080
     FM010900 33006KT P6SM SCT100
     FM011800 22004KT P6SM FEW140=

USA.gov is the U.S. government's official web portal to all federal, state and local government web resources and services.